sensor_id;sensor_type;location;lat;lon;timestamp;pressure;altitude;pressure_sealevel;temperature;humidity
79368;BME280;68834;53.152;17.962;2023-04-29T00:01:58;100852.31;;;9.15;50.23
79368;BME280;68834;53.152;17.962;2023-04-29T00:04:25;100849.58;;;9.13;50.14
79368;BME280;68834;53.152;17.962;2023-04-29T00:06:53;100848.04;;;9.11;49.93
79368;BME280;68834;53.152;17.962;2023-04-29T00:09:20;100843.19;;;9.09;50.11
79368;BME280;68834;53.152;17.962;2023-04-29T00:11:47;100842.88;;;9.08;49.74
79368;BME280;68834;53.152;17.962;2023-04-29T00:14:15;100842.18;;;9.06;50.17
79368;BME280;68834;53.152;17.962;2023-04-29T00:16:42;100842.40;;;9.04;50.39
79368;BME280;68834;53.152;17.962;2023-04-29T00:19:08;100842.80;;;9.01;50.35
79368;BME280;68834;53.152;17.962;2023-04-29T00:21:35;100839.73;;;8.97;50.39
79368;BME280;68834;53.152;17.962;2023-04-29T00:24:02;100841.69;;;8.94;50.22
79368;BME280;68834;53.152;17.962;2023-04-29T00:26:28;100843.84;;;8.91;50.19
79368;BME280;68834;53.152;17.962;2023-04-29T00:28:55;100838.67;;;8.87;50.51
79368;BME280;68834;53.152;17.962;2023-04-29T00:31:22;100838.38;;;8.84;50.92
79368;BME280;68834;53.152;17.962;2023-04-29T00:33:49;100835.44;;;8.82;50.89
79368;BME280;68834;53.152;17.962;2023-04-29T00:36:15;100831.80;;;8.81;50.86
79368;BME280;68834;53.152;17.962;2023-04-29T00:38:42;100829.55;;;8.79;50.59
79368;BME280;68834;53.152;17.962;2023-04-29T00:41:09;100826.97;;;8.78;51.02
79368;BME280;68834;53.152;17.962;2023-04-29T00:43:35;100827.36;;;8.76;51.25
79368;BME280;68834;53.152;17.962;2023-04-29T00:46:02;100824.93;;;8.75;51.23
79368;BME280;68834;53.152;17.962;2023-04-29T00:48:29;100821.98;;;8.74;51.18
79368;BME280;68834;53.152;17.962;2023-04-29T00:50:55;100821.67;;;8.73;51.46
79368;BME280;68834;53.152;17.962;2023-04-29T00:53:22;100823.92;;;8.73;51.58
79368;BME280;68834;53.152;17.962;2023-04-29T00:55:49;100819.73;;;8.73;51.29
79368;BME280;68834;53.152;17.962;2023-04-29T00:58:17;100825.11;;;8.75;51.53
79368;BME280;68834;53.152;17.962;2023-04-29T01:00:45;100822.16;;;8.74;51.56
79368;BME280;68834;53.152;17.962;2023-04-29T01:03:13;100821.13;;;8.74;51.52
79368;BME280;68834;53.152;17.962;2023-04-29T01:05:40;100820.58;;;8.75;51.61
79368;BME280;68834;53.152;17.962;2023-04-29T01:08:15;100817.59;;;8.77;51.52
79368;BME280;68834;53.152;17.962;2023-04-29T01:10:54;100821.22;;;8.79;51.71
79368;BME280;68834;53.152;17.962;2023-04-29T01:13:29;100814.92;;;8.80;51.96
79368;BME280;68834;53.152;17.962;2023-04-29T01:16:09;100815.23;;;8.82;51.80
79368;BME280;68834;53.152;17.962;2023-04-29T01:18:53;100814.16;;;8.83;51.77
79368;BME280;68834;53.152;17.962;2023-04-29T01:21:23;100814.17;;;8.83;51.68
79368;BME280;68834;53.152;17.962;2023-04-29T01:23:51;100812.08;;;8.83;51.63
79368;BME280;68834;53.152;17.962;2023-04-29T01:26:23;100807.20;;;8.83;52.15
79368;BME280;68834;53.152;17.962;2023-04-29T01:29:26;100808.13;;;8.80;52.17
79368;BME280;68834;53.152;17.962;2023-04-29T01:32:08;100809.23;;;8.75;52.01
79368;BME280;68834;53.152;17.962;2023-04-29T01:34:45;100808.60;;;8.72;51.95
79368;BME280;68834;53.152;17.962;2023-04-29T01:40:11;100806.39;;;8.69;52.57
79368;BME280;68834;53.152;17.962;2023-04-29T01:42:58;100805.95;;;8.63;52.56
79368;BME280;68834;53.152;17.962;2023-04-29T01:45:26;100805.17;;;8.58;52.75
79368;BME280;68834;53.152;17.962;2023-04-29T01:47:54;100799.70;;;8.51;52.73
79368;BME280;68834;53.152;17.962;2023-04-29T01:50:25;100801.51;;;8.47;52.97
79368;BME280;68834;53.152;17.962;2023-04-29T01:52:51;100799.85;;;8.41;53.05
79368;BME280;68834;53.152;17.962;2023-04-29T01:55:18;100800.59;;;8.36;53.24
79368;BME280;68834;53.152;17.962;2023-04-29T01:57:52;100795.63;;;8.30;53.44
79368;BME280;68834;53.152;17.962;2023-04-29T02:00:35;100797.84;;;8.22;53.71
79368;BME280;68834;53.152;17.962;2023-04-29T02:03:01;100796.33;;;8.17;53.59
79368;BME280;68834;53.152;17.962;2023-04-29T02:05:40;100792.05;;;8.14;53.29
79368;BME280;68834;53.152;17.962;2023-04-29T02:08:06;100793.45;;;8.12;53.77
79368;BME280;68834;53.152;17.962;2023-04-29T02:10:35;100794.70;;;8.10;53.60
79368;BME280;68834;53.152;17.962;2023-04-29T02:13:13;100789.16;;;8.08;53.93
79368;BME280;68834;53.152;17.962;2023-04-29T02:15:41;100787.98;;;8.05;54.04
79368;BME280;68834;53.152;17.962;2023-04-29T02:18:08;100786.43;;;8.02;53.93
79368;BME280;68834;53.152;17.962;2023-04-29T02:20:34;100790.30;;;8.01;54.19
79368;BME280;68834;53.152;17.962;2023-04-29T02:23:04;100791.75;;;7.96;54.51
79368;BME280;68834;53.152;17.962;2023-04-29T02:25:31;100788.84;;;7.94;54.55
79368;BME280;68834;53.152;17.962;2023-04-29T02:27:58;100789.18;;;7.93;54.38
79368;BME280;68834;53.152;17.962;2023-04-29T02:30:26;100787.45;;;7.92;54.59
79368;BME280;68834;53.152;17.962;2023-04-29T02:32:52;100785.02;;;7.92;54.96
79368;BME280;68834;53.152;17.962;2023-04-29T02:35:19;100783.49;;;7.89;55.06
79368;BME280;68834;53.152;17.962;2023-04-29T02:37:47;100780.21;;;7.88;55.10
79368;BME280;68834;53.152;17.962;2023-04-29T02:40:13;100779.88;;;7.86;55.31
79368;BME280;68834;53.152;17.962;2023-04-29T02:42:40;100779.91;;;7.84;55.11
79368;BME280;68834;53.152;17.962;2023-04-29T02:45:07;100778.36;;;7.83;55.22
79368;BME280;68834;53.152;17.962;2023-04-29T02:47:34;100777.49;;;7.82;55.35
79368;BME280;68834;53.152;17.962;2023-04-29T02:50:01;100772.83;;;7.80;55.65
79368;BME280;68834;53.152;17.962;2023-04-29T02:52:27;100774.77;;;7.78;55.63
79368;BME280;68834;53.152;17.962;2023-04-29T02:54:54;100773.76;;;7.76;55.70
79368;BME280;68834;53.152;17.962;2023-04-29T02:57:20;100774.30;;;7.73;55.94
79368;BME280;68834;53.152;17.962;2023-04-29T02:59:47;100769.30;;;7.71;55.68
79368;BME280;68834;53.152;17.962;2023-04-29T03:02:13;100769.83;;;7.70;55.87
79368;BME280;68834;53.152;17.962;2023-04-29T03:04:40;100770.19;;;7.69;56.24
79368;BME280;68834;53.152;17.962;2023-04-29T03:07:07;100772.80;;;7.69;56.21
79368;BME280;68834;53.152;17.962;2023-04-29T03:09:34;100773.34;;;7.68;56.30
79368;BME280;68834;53.152;17.962;2023-04-29T03:12:01;100770.92;;;7.66;56.30
79368;BME280;68834;53.152;17.962;2023-04-29T03:14:29;100766.95;;;7.65;56.37
79368;BME280;68834;53.152;17.962;2023-04-29T03:16:57;100771.48;;;7.63;56.35
79368;BME280;68834;53.152;17.962;2023-04-29T03:19:24;100769.59;;;7.62;56.28
79368;BME280;68834;53.152;17.962;2023-04-29T03:21:51;100769.09;;;7.60;56.44
79368;BME280;68834;53.152;17.962;2023-04-29T03:24:17;100769.27;;;7.59;56.60
79368;BME280;68834;53.152;17.962;2023-04-29T03:26:44;100768.43;;;7.58;56.55
79368;BME280;68834;53.152;17.962;2023-04-29T03:29:11;100768.44;;;7.57;56.58
79368;BME280;68834;53.152;17.962;2023-04-29T03:31:37;100767.21;;;7.56;56.53
79368;BME280;68834;53.152;17.962;2023-04-29T03:34:04;100768.27;;;7.57;56.61
79368;BME280;68834;53.152;17.962;2023-04-29T03:36:32;100768.27;;;7.57;56.69
79368;BME280;68834;53.152;17.962;2023-04-29T03:39:02;100768.26;;;7.57;57.05
79368;BME280;68834;53.152;17.962;2023-04-29T03:41:29;100770.70;;;7.57;57.11
79368;BME280;68834;53.152;17.962;2023-04-29T03:43:55;100767.23;;;7.55;57.27
79368;BME280;68834;53.152;17.962;2023-04-29T03:46:27;100767.26;;;7.53;57.31
79368;BME280;68834;53.152;17.962;2023-04-29T03:48:53;100762.77;;;7.51;57.46
79368;BME280;68834;53.152;17.962;2023-04-29T03:51:24;100760.88;;;7.50;57.68
79368;BME280;68834;53.152;17.962;2023-04-29T03:53:54;100761.20;;;7.49;57.68
79368;BME280;68834;53.152;17.962;2023-04-29T03:56:24;100762.08;;;7.50;57.55
79368;BME280;68834;53.152;17.962;2023-04-29T03:58:51;100763.08;;;7.53;57.56
79368;BME280;68834;53.152;17.962;2023-04-29T04:01:19;100762.69;;;7.57;57.66
79368;BME280;68834;53.152;17.962;2023-04-29T04:03:46;100762.81;;;7.61;57.98
79368;BME280;68834;53.152;17.962;2023-04-29T04:06:13;100760.88;;;7.63;57.74
79368;BME280;68834;53.152;17.962;2023-04-29T04:08:40;100763.30;;;7.64;57.91
79368;BME280;68834;53.152;17.962;2023-04-29T04:11:12;100762.05;;;7.65;57.94
79368;BME280;68834;53.152;17.962;2023-04-29T04:13:46;100766.05;;;7.66;57.96
79368;BME280;68834;53.152;17.962;2023-04-29T04:16:15;100765.52;;;7.67;58.02
79368;BME280;68834;53.152;17.962;2023-04-29T04:18:41;100768.11;;;7.68;58.15
79368;BME280;68834;53.152;17.962;2023-04-29T04:21:09;100766.86;;;7.71;58.27
79368;BME280;68834;53.152;17.962;2023-04-29T04:23:37;100768.04;;;7.74;58.34
79368;BME280;68834;53.152;17.962;2023-04-29T04:26:08;100768.02;;;7.76;58.31
79368;BME280;68834;53.152;17.962;2023-04-29T04:28:49;100764.14;;;7.79;58.22
79368;BME280;68834;53.152;17.962;2023-04-29T04:31:21;100761.48;;;7.84;58.13
79368;BME280;68834;53.152;17.962;2023-04-29T04:33:48;100760.54;;;7.88;58.14
79368;BME280;68834;53.152;17.962;2023-04-29T04:36:14;100762.38;;;7.93;58.14
79368;BME280;68834;53.152;17.962;2023-04-29T04:38:41;100760.58;;;7.98;58.24
79368;BME280;68834;53.152;17.962;2023-04-29T04:41:10;100761.17;;;8.06;58.04
79368;BME280;68834;53.152;17.962;2023-04-29T04:43:38;100761.92;;;8.14;58.07
79368;BME280;68834;53.152;17.962;2023-04-29T04:46:13;100764.38;;;8.23;58.09
79368;BME280;68834;53.152;17.962;2023-04-29T04:49:01;100760.27;;;8.32;58.23
79368;BME280;68834;53.152;17.962;2023-04-29T04:51:28;100760.67;;;8.39;57.91
79368;BME280;68834;53.152;17.962;2023-04-29T04:53:55;100754.30;;;8.46;58.19
79368;BME280;68834;53.152;17.962;2023-04-29T04:56:23;100756.46;;;8.54;57.91
79368;BME280;68834;53.152;17.962;2023-04-29T04:58:50;100758.25;;;8.62;57.36
79368;BME280;68834;53.152;17.962;2023-04-29T05:01:16;100759.32;;;8.70;57.41
79368;BME280;68834;53.152;17.962;2023-04-29T05:03:43;100760.76;;;8.78;57.55
79368;BME280;68834;53.152;17.962;2023-04-29T05:06:10;100761.16;;;8.85;57.67
79368;BME280;68834;53.152;17.962;2023-04-29T05:08:38;100762.64;;;8.90;57.69
79368;BME280;68834;53.152;17.962;2023-04-29T05:11:05;100765.55;;;8.93;57.41
79368;BME280;68834;53.152;17.962;2023-04-29T05:13:32;100765.13;;;8.97;57.48
79368;BME280;68834;53.152;17.962;2023-04-29T05:16:02;100762.98;;;9.00;57.26
79368;BME280;68834;53.152;17.962;2023-04-29T05:18:30;100761.36;;;9.02;57.44
79368;BME280;68834;53.152;17.962;2023-04-29T05:20:56;100766.23;;;9.03;57.24
79368;BME280;68834;53.152;17.962;2023-04-29T05:23:23;100766.74;;;9.04;57.24
79368;BME280;68834;53.152;17.962;2023-04-29T05:25:50;100767.08;;;9.05;57.54
79368;BME280;68834;53.152;17.962;2023-04-29T05:28:17;100771.61;;;9.04;57.30
79368;BME280;68834;53.152;17.962;2023-04-29T05:30:44;100773.99;;;9.08;57.93
79368;BME280;68834;53.152;17.962;2023-04-29T05:33:12;100772.87;;;9.12;57.42
79368;BME280;68834;53.152;17.962;2023-04-29T05:35:38;100772.04;;;9.19;57.43
79368;BME280;68834;53.152;17.962;2023-04-29T05:38:05;100774.82;;;9.28;57.44
79368;BME280;68834;53.152;17.962;2023-04-29T05:40:49;100776.64;;;9.42;57.08
79368;BME280;68834;53.152;17.962;2023-04-29T05:43:36;100774.99;;;9.55;57.44
79368;BME280;68834;53.152;17.962;2023-04-29T05:46:03;100777.93;;;9.65;57.69
79368;BME280;68834;53.152;17.962;2023-04-29T05:48:29;100775.79;;;9.76;57.42
79368;BME280;68834;53.152;17.962;2023-04-29T05:50:56;100776.41;;;9.87;57.64
79368;BME280;68834;53.152;17.962;2023-04-29T05:53:23;100774.60;;;9.99;57.74
79368;BME280;68834;53.152;17.962;2023-04-29T05:55:49;100771.23;;;10.09;57.59
79368;BME280;68834;53.152;17.962;2023-04-29T05:58:16;100770.09;;;10.20;57.51
79368;BME280;68834;53.152;17.962;2023-04-29T06:00:43;100772.86;;;10.30;57.15
79368;BME280;68834;53.152;17.962;2023-04-29T06:03:14;100770.94;;;10.38;56.67
79368;BME280;68834;53.152;17.962;2023-04-29T06:05:40;100767.52;;;10.49;56.63
79368;BME280;68834;53.152;17.962;2023-04-29T06:08:46;100765.41;;;10.64;56.18
79368;BME280;68834;53.152;17.962;2023-04-29T06:11:16;100762.63;;;10.77;55.91
79368;BME280;68834;53.152;17.962;2023-04-29T06:13:43;100765.23;;;10.92;55.62
79368;BME280;68834;53.152;17.962;2023-04-29T06:16:10;100762.61;;;11.05;55.23
79368;BME280;68834;53.152;17.962;2023-04-29T06:18:38;100763.75;;;11.21;54.95
79368;BME280;68834;53.152;17.962;2023-04-29T06:21:04;100763.66;;;11.37;54.82
79368;BME280;68834;53.152;17.962;2023-04-29T06:23:31;100760.23;;;11.47;54.11
79368;BME280;68834;53.152;17.962;2023-04-29T06:26:00;100759.77;;;11.57;54.08
79368;BME280;68834;53.152;17.962;2023-04-29T06:28:27;100761.38;;;11.67;53.51
79368;BME280;68834;53.152;17.962;2023-04-29T06:30:55;100758.79;;;11.72;52.93
79368;BME280;68834;53.152;17.962;2023-04-29T06:33:22;100758.92;;;11.80;53.21
79368;BME280;68834;53.152;17.962;2023-04-29T06:35:49;100757.61;;;11.90;53.01
79368;BME280;68834;53.152;17.962;2023-04-29T06:38:38;100757.36;;;11.98;52.80
79368;BME280;68834;53.152;17.962;2023-04-29T06:41:29;100758.63;;;12.02;52.54
79368;BME280;68834;53.152;17.962;2023-04-29T06:44:32;100762.89;;;12.07;52.59
79368;BME280;68834;53.152;17.962;2023-04-29T06:47:18;100760.44;;;12.11;51.87
79368;BME280;68834;53.152;17.962;2023-04-29T06:49:57;100758.72;;;12.11;51.92
79368;BME280;68834;53.152;17.962;2023-04-29T06:52:24;100761.45;;;12.13;52.29
79368;BME280;68834;53.152;17.962;2023-04-29T06:54:50;100765.29;;;12.19;52.25
79368;BME280;68834;53.152;17.962;2023-04-29T06:57:18;100768.62;;;12.25;52.27
79368;BME280;68834;53.152;17.962;2023-04-29T06:59:46;100764.01;;;12.32;52.73
79368;BME280;68834;53.152;17.962;2023-04-29T07:02:12;100766.00;;;12.46;52.02
79368;BME280;68834;53.152;17.962;2023-04-29T07:04:39;100765.14;;;12.57;51.67
79368;BME280;68834;53.152;17.962;2023-04-29T07:07:06;100765.30;;;12.62;51.57
79368;BME280;68834;53.152;17.962;2023-04-29T07:09:34;100765.83;;;12.67;51.48
79368;BME280;68834;53.152;17.962;2023-04-29T07:12:00;100765.73;;;12.70;51.22
79368;BME280;68834;53.152;17.962;2023-04-29T07:14:30;100763.50;;;12.69;51.50
79368;BME280;68834;53.152;17.962;2023-04-29T07:16:57;100763.11;;;12.70;51.76
79368;BME280;68834;53.152;17.962;2023-04-29T07:19:24;100760.11;;;12.76;51.81
79368;BME280;68834;53.152;17.962;2023-04-29T07:21:50;100757.58;;;12.83;51.53
79368;BME280;68834;53.152;17.962;2023-04-29T07:24:17;100758.20;;;12.85;51.41
79368;BME280;68834;53.152;17.962;2023-04-29T07:26:46;100760.41;;;12.88;51.39
79368;BME280;68834;53.152;17.962;2023-04-29T07:29:15;100759.45;;;12.90;51.45
79368;BME280;68834;53.152;17.962;2023-04-29T07:31:42;100760.67;;;12.95;51.52
79368;BME280;68834;53.152;17.962;2023-04-29T07:34:08;100766.13;;;12.95;51.41
79368;BME280;68834;53.152;17.962;2023-04-29T07:36:35;100766.37;;;12.93;51.63
79368;BME280;68834;53.152;17.962;2023-04-29T07:39:02;100767.98;;;12.92;51.35
79368;BME280;68834;53.152;17.962;2023-04-29T07:41:28;100769.39;;;12.92;51.50
79368;BME280;68834;53.152;17.962;2023-04-29T07:43:55;100770.38;;;12.94;51.24
79368;BME280;68834;53.152;17.962;2023-04-29T07:46:22;100773.27;;;12.92;51.64
79368;BME280;68834;53.152;17.962;2023-04-29T07:48:48;100769.56;;;12.92;51.89
79368;BME280;68834;53.152;17.962;2023-04-29T07:51:15;100773.84;;;12.95;51.95
79368;BME280;68834;53.152;17.962;2023-04-29T07:53:42;100772.58;;;12.96;52.17
79368;BME280;68834;53.152;17.962;2023-04-29T07:56:09;100775.29;;;12.99;52.29
79368;BME280;68834;53.152;17.962;2023-04-29T07:58:35;100773.11;;;13.06;52.12
79368;BME280;68834;53.152;17.962;2023-04-29T08:01:09;100778.81;;;13.13;52.46
79368;BME280;68834;53.152;17.962;2023-04-29T08:03:37;100778.55;;;13.15;52.61
79368;BME280;68834;53.152;17.962;2023-04-29T08:06:05;100778.28;;;13.18;52.96
79368;BME280;68834;53.152;17.962;2023-04-29T08:08:34;100780.33;;;13.20;53.01
79368;BME280;68834;53.152;17.962;2023-04-29T08:11:00;100785.63;;;13.26;53.43
79368;BME280;68834;53.152;17.962;2023-04-29T08:13:28;100784.07;;;13.25;53.58
79368;BME280;68834;53.152;17.962;2023-04-29T08:15:55;100785.30;;;13.19;54.11
79368;BME280;68834;53.152;17.962;2023-04-29T08:18:22;100787.77;;;13.08;54.47
79368;BME280;68834;53.152;17.962;2023-04-29T08:20:48;100787.98;;;13.02;54.73
79368;BME280;68834;53.152;17.962;2023-04-29T08:23:15;100781.29;;;13.03;55.00
79368;BME280;68834;53.152;17.962;2023-04-29T08:25:42;100784.27;;;13.03;54.99
79368;BME280;68834;53.152;17.962;2023-04-29T08:28:10;100784.71;;;13.00;55.20
79368;BME280;68834;53.152;17.962;2023-04-29T08:30:38;100786.47;;;12.95;55.57
79368;BME280;68834;53.152;17.962;2023-04-29T08:33:05;100781.38;;;12.90;55.84
79368;BME280;68834;53.152;17.962;2023-04-29T08:35:32;100788.90;;;12.85;55.88
79368;BME280;68834;53.152;17.962;2023-04-29T08:37:59;100791.98;;;12.83;56.50
79368;BME280;68834;53.152;17.962;2023-04-29T08:40:25;100792.10;;;12.84;57.26
79368;BME280;68834;53.152;17.962;2023-04-29T08:42:53;100787.05;;;12.83;57.39
79368;BME280;68834;53.152;17.962;2023-04-29T08:45:21;100788.87;;;12.81;57.49
79368;BME280;68834;53.152;17.962;2023-04-29T08:47:50;100788.23;;;12.80;56.70
79368;BME280;68834;53.152;17.962;2023-04-29T08:50:18;100793.30;;;12.80;56.93
79368;BME280;68834;53.152;17.962;2023-04-29T08:52:44;100792.23;;;12.86;57.35
79368;BME280;68834;53.152;17.962;2023-04-29T08:55:11;100793.98;;;12.96;57.18
79368;BME280;68834;53.152;17.962;2023-04-29T08:57:38;100795.08;;;13.06;57.04
79368;BME280;68834;53.152;17.962;2023-04-29T09:00:08;100792.17;;;13.08;57.00
79368;BME280;68834;53.152;17.962;2023-04-29T09:02:59;100796.41;;;13.12;57.19
79368;BME280;68834;53.152;17.962;2023-04-29T09:05:27;100797.30;;;13.17;57.22
79368;BME280;68834;53.152;17.962;2023-04-29T09:07:56;100799.84;;;13.20;57.45
79368;BME280;68834;53.152;17.962;2023-04-29T09:10:25;100796.80;;;13.16;56.85
79368;BME280;68834;53.152;17.962;2023-04-29T09:12:55;100793.66;;;13.10;57.02
79368;BME280;68834;53.152;17.962;2023-04-29T09:15:23;100792.77;;;13.06;57.15
79368;BME280;68834;53.152;17.962;2023-04-29T09:17:49;100789.42;;;13.01;57.43
79368;BME280;68834;53.152;17.962;2023-04-29T09:22:53;100788.59;;;13.00;57.91
79368;BME280;68834;53.152;17.962;2023-04-29T09:25:21;100783.45;;;13.07;57.63
79368;BME280;68834;53.152;17.962;2023-04-29T09:27:48;100780.73;;;13.09;56.86
79368;BME280;68834;53.152;17.962;2023-04-29T09:30:15;100779.52;;;13.13;56.65
79368;BME280;68834;53.152;17.962;2023-04-29T09:32:42;100778.08;;;13.14;57.13
79368;BME280;68834;53.152;17.962;2023-04-29T09:35:26;100785.73;;;13.17;56.67
79368;BME280;68834;53.152;17.962;2023-04-29T09:38:07;100788.32;;;13.18;56.31
79368;BME280;68834;53.152;17.962;2023-04-29T09:40:34;100787.71;;;13.15;56.80
79368;BME280;68834;53.152;17.962;2023-04-29T09:43:10;100792.86;;;13.13;56.70
79368;BME280;68834;53.152;17.962;2023-04-29T09:45:44;100789.39;;;13.12;56.62
79368;BME280;68834;53.152;17.962;2023-04-29T09:48:12;100794.96;;;13.18;57.03
79368;BME280;68834;53.152;17.962;2023-04-29T09:50:42;100795.52;;;13.29;56.88
79368;BME280;68834;53.152;17.962;2023-04-29T09:53:10;100794.77;;;13.30;56.81
79368;BME280;68834;53.152;17.962;2023-04-29T09:56:00;100793.36;;;13.31;56.76
79368;BME280;68834;53.152;17.962;2023-04-29T09:58:36;100792.85;;;13.34;57.07
79368;BME280;68834;53.152;17.962;2023-04-29T10:01:05;100787.63;;;13.38;57.36
79368;BME280;68834;53.152;17.962;2023-04-29T10:03:41;100785.02;;;13.47;57.64
79368;BME280;68834;53.152;17.962;2023-04-29T10:06:09;100787.25;;;13.63;57.27
79368;BME280;68834;53.152;17.962;2023-04-29T10:08:37;100781.91;;;13.70;57.07
79368;BME280;68834;53.152;17.962;2023-04-29T10:11:04;100778.73;;;13.75;56.96
79368;BME280;68834;53.152;17.962;2023-04-29T10:13:33;100777.95;;;13.82;56.79
79368;BME280;68834;53.152;17.962;2023-04-29T10:18:36;100768.98;;;14.04;56.16
79368;BME280;68834;53.152;17.962;2023-04-29T10:21:07;100770.37;;;14.23;56.05
79368;BME280;68834;53.152;17.962;2023-04-29T10:23:36;100768.16;;;14.39;55.56
79368;BME280;68834;53.152;17.962;2023-04-29T10:26:04;100764.47;;;14.61;54.96
79368;BME280;68834;53.152;17.962;2023-04-29T10:28:32;100761.30;;;14.82;54.40
79368;BME280;68834;53.152;17.962;2023-04-29T10:31:03;100760.16;;;15.17;54.12
79368;BME280;68834;53.152;17.962;2023-04-29T10:33:32;100755.98;;;15.59;53.33
79368;BME280;68834;53.152;17.962;2023-04-29T10:36:03;100754.48;;;15.96;51.90
79368;BME280;68834;53.152;17.962;2023-04-29T10:38:38;100748.12;;;16.29;51.63
79368;BME280;68834;53.152;17.962;2023-04-29T10:41:20;100751.90;;;16.57;50.24
79368;BME280;68834;53.152;17.962;2023-04-29T10:43:51;100750.50;;;16.78;49.80
79368;BME280;68834;53.152;17.962;2023-04-29T10:48:48;100756.44;;;16.68;49.01
79368;BME280;68834;53.152;17.962;2023-04-29T10:51:31;100757.20;;;16.56;48.66
79368;BME280;68834;53.152;17.962;2023-04-29T10:54:05;100754.13;;;16.36;48.67
79368;BME280;68834;53.152;17.962;2023-04-29T10:56:36;100753.27;;;16.06;48.99
79368;BME280;68834;53.152;17.962;2023-04-29T10:59:04;100754.96;;;15.82;49.82
79368;BME280;68834;53.152;17.962;2023-04-29T11:01:45;100753.52;;;15.71;50.27
79368;BME280;68834;53.152;17.962;2023-04-29T11:04:13;100751.54;;;15.56;50.38
79368;BME280;68834;53.152;17.962;2023-04-29T11:06:41;100754.73;;;15.47;50.79
79368;BME280;68834;53.152;17.962;2023-04-29T11:09:24;100756.76;;;15.38;51.09
79368;BME280;68834;53.152;17.962;2023-04-29T11:17:00;100762.55;;;15.06;52.10
79368;BME280;68834;53.152;17.962;2023-04-29T11:19:35;100760.24;;;15.02;52.30
79368;BME280;68834;53.152;17.962;2023-04-29T11:24:57;100754.23;;;14.95;52.63
79368;BME280;68834;53.152;17.962;2023-04-29T11:27:29;100753.13;;;15.09;52.84
79368;BME280;68834;53.152;17.962;2023-04-29T11:29:57;100749.83;;;15.24;52.59
79368;BME280;68834;53.152;17.962;2023-04-29T11:32:28;100748.16;;;15.45;52.40
79368;BME280;68834;53.152;17.962;2023-04-29T11:35:15;100744.41;;;15.66;51.91
79368;BME280;68834;53.152;17.962;2023-04-29T11:37:44;100745.61;;;15.93;51.12
79368;BME280;68834;53.152;17.962;2023-04-29T11:40:12;100742.31;;;16.08;50.59
79368;BME280;68834;53.152;17.962;2023-04-29T11:42:46;100743.84;;;16.19;49.91
79368;BME280;68834;53.152;17.962;2023-04-29T11:45:15;100742.98;;;16.27;49.42
79368;BME280;68834;53.152;17.962;2023-04-29T11:47:43;100743.67;;;16.26;49.02
79368;BME280;68834;53.152;17.962;2023-04-29T11:50:12;100745.38;;;16.42;48.67
79368;BME280;68834;53.152;17.962;2023-04-29T11:52:41;100746.07;;;16.57;47.98
79368;BME280;68834;53.152;17.962;2023-04-29T11:55:08;100744.67;;;16.60;47.35
79368;BME280;68834;53.152;17.962;2023-04-29T11:57:36;100740.59;;;16.64;47.51
79368;BME280;68834;53.152;17.962;2023-04-29T12:00:03;100746.94;;;16.71;47.32
79368;BME280;68834;53.152;17.962;2023-04-29T12:02:34;100745.73;;;16.78;47.47
79368;BME280;68834;53.152;17.962;2023-04-29T12:05:05;100746.27;;;16.81;47.13
79368;BME280;68834;53.152;17.962;2023-04-29T12:07:34;100743.94;;;16.79;46.95
79368;BME280;68834;53.152;17.962;2023-04-29T12:10:02;100741.14;;;16.63;46.65
79368;BME280;68834;53.152;17.962;2023-04-29T12:12:29;100740.44;;;16.42;47.06
79368;BME280;68834;53.152;17.962;2023-04-29T12:15:00;100738.89;;;16.12;47.67
79368;BME280;68834;53.152;17.962;2023-04-29T12:17:28;100741.17;;;15.94;48.07
79368;BME280;68834;53.152;17.962;2023-04-29T12:19:56;100736.12;;;15.70;48.69
79368;BME280;68834;53.152;17.962;2023-04-29T12:22:30;100741.58;;;15.66;49.12
79368;BME280;68834;53.152;17.962;2023-04-29T12:24:57;100740.69;;;15.58;49.22
79368;BME280;68834;53.152;17.962;2023-04-29T12:27:24;100740.08;;;15.48;49.60
79368;BME280;68834;53.152;17.962;2023-04-29T12:29:51;100740.33;;;15.39;49.70
79368;BME280;68834;53.152;17.962;2023-04-29T12:32:22;100735.73;;;15.36;50.13
79368;BME280;68834;53.152;17.962;2023-04-29T12:34:50;100736.66;;;15.38;50.22
79368;BME280;68834;53.152;17.962;2023-04-29T12:37:17;100734.33;;;15.43;50.16
79368;BME280;68834;53.152;17.962;2023-04-29T12:39:44;100732.67;;;15.48;50.06
79368;BME280;68834;53.152;17.962;2023-04-29T12:42:14;100735.38;;;15.51;50.13
79368;BME280;68834;53.152;17.962;2023-04-29T12:44:46;100732.23;;;15.58;50.08
79368;BME280;68834;53.152;17.962;2023-04-29T12:47:14;100729.14;;;15.69;49.97
79368;BME280;68834;53.152;17.962;2023-04-29T12:49:41;100726.13;;;15.80;49.84
79368;BME280;68834;53.152;17.962;2023-04-29T12:52:08;100723.36;;;15.97;49.68
79368;BME280;68834;53.152;17.962;2023-04-29T12:54:36;100719.30;;;16.31;49.38
79368;BME280;68834;53.152;17.962;2023-04-29T12:57:03;100713.91;;;16.78;48.57
79368;BME280;68834;53.152;17.962;2023-04-29T12:59:30;100713.96;;;17.38;47.13
79368;BME280;68834;53.152;17.962;2023-04-29T13:01:56;100707.98;;;18.33;45.48
79368;BME280;68834;53.152;17.962;2023-04-29T13:04:23;100704.13;;;19.05;43.01
79368;BME280;68834;53.152;17.962;2023-04-29T13:06:50;100701.61;;;19.74;42.02
79368;BME280;68834;53.152;17.962;2023-04-29T13:09:19;100698.36;;;20.21;41.09
79368;BME280;68834;53.152;17.962;2023-04-29T13:11:46;100697.13;;;20.64;38.96
79368;BME280;68834;53.152;17.962;2023-04-29T13:14:12;100691.45;;;22.04;37.29
79368;BME280;68834;53.152;17.962;2023-04-29T13:16:39;100685.05;;;23.55;34.93